Terminal Aerodrome Forecast
Issued by NWS Omaha/Valley, NE

Home | Current Version | Previous Version | Text Only | Print | Product List | Glossary Off
Versions: 1 2 3 4 5 6 7 8 9 10 11 12 13 14 15 16 17 18 19 20 21 22 23 24 25 26 27 28 29 30 31 32 33 34 35 36 37

000
FTUS43 KOAX 310322 AAA
TAFOFK
TAF AMD
KOFK 310322Z 3103/3124 17010KT P6SM BKN250
     FM310400 17009KT P6SM VCTS SCT070CB BKN250
      TEMPO 3105/3107 P6SM -TSRA OVC040CB
     FM310800 31008KT P6SM VCSH BKN080
     FM311000 31010KT P6SM FEW250=

USA.gov is the U.S. government's official web portal to all federal, state and local government web resources and services.